Udo Maru — JM6522 — position and weather

sailwx.info

Track history (hours):
 
Tides and Currents Weather Stations Pressure Air Temp Water Temp Dewpoint Dewpoint Depression Visibility Wind Speed Wind Dir Waves Ship Positions

Udo Maru

Last reported at 2015-Jan-29 07:27 UTC. Time now 2015-Feb-01 10:11 UTC.
Position N 34°38' E 134°54'.

Length 87 m; draft 4.9 m.

Type: Ship (hazmat cat A). MMSI: 431600499.

Date/timePositionNaut miles runAvg speedWind from/ knotsBaromVisibWave heightAir tempDewpointWater temp
2015-Jan-29 07:27N 34°38' E 134°54'1010.8
2015-Jan-29 06:33N 34°34' E 135°05'1211.7
2015-Jan-29 05:33N 34°23' E 135°02'1111.0
2015-Jan-29 04:33N 34°12' E 134°60'1311.0
2015-Jan-29 03:25N 33°59' E 135°01'223 9.2
2015-Jan-28 03:10N 34°56' E 139°22'711.1
2015-Jan-28 02:33N 34°60' E 139°29'1111.6
2015-Jan-28 01:33N 35°06' E 139°41'1110.9
2015-Jan-28 00:33N 35°16' E 139°45'10 9.6
2015-Jan-27 23:33N 35°26' E 139°45'4 3.7
2015-Jan-27 22:33N 35°28' E 139°49'0 0.0
2015-Jan-27 21:30N 35°28' E 139°49'0 0.1
2015-Jan-27 20:33N 35°28' E 139°49'0 0.0
2015-Jan-27 19:30N 35°28' E 139°49'0 0.0
2015-Jan-27 18:33N 35°28' E 139°49'0 0.0
2015-Jan-27 17:30N 35°28' E 139°49'0 0.0
2015-Jan-27 16:33N 35°28' E 139°49'0 0.0
2015-Jan-27 15:30N 35°28' E 139°49'0 0.0
2015-Jan-27 14:33N 35°28' E 139°49'0 0.0
2015-Jan-27 13:33N 35°28' E 139°49'0 0.0
2015-Jan-27 12:33N 35°28' E 139°49'0 0.0
2015-Jan-27 11:33N 35°28' E 139°49'0 0.0
2015-Jan-27 10:30N 35°28' E 139°49'7 7.1
2015-Jan-27 09:33N 35°22' E 139°50'1 0.7
2015-Jan-27 08:31N 35°22' E 139°51'0 0.0
2015-Jan-27 07:31N 35°22' E 139°51'0 0.0
2015-Jan-27 06:28N 35°22' E 139°51'0 0.0
2015-Jan-27 05:31N 35°22' E 139°51'0 0.0
2015-Jan-27 04:31N 35°22' E 139°51'0 0.0
2015-Jan-27 03:31N 35°22' E 139°51'0 0.0
2015-Jan-27 02:31N 35°22' E 139°51'0 0.2
2015-Jan-27 01:31N 35°21' E 139°51'1 0.9
2015-Jan-27 00:28N 35°22' E 139°50'1 0.8
2015-Jan-26 23:32N 35°22' E 139°49'0 0.0
2015-Jan-26 22:32N 35°22' E 139°49'0 0.0
2015-Jan-26 21:32N 35°22' E 139°49'0 0.0
2015-Jan-26 20:32N 35°22' E 139°49'0 0.0
2015-Jan-26 19:32N 35°22' E 139°49'0 0.0
2015-Jan-26 18:32N 35°22' E 139°49'0 0.0
2015-Jan-26 17:32N 35°22' E 139°49'0 0.0
2015-Jan-26 16:32N 35°22' E 139°49'0 0.0
2015-Jan-26 15:32N 35°22' E 139°49'0 0.0
2015-Jan-26 14:32N 35°22' E 139°49'0 0.1
2015-Jan-26 13:32N 35°22' E 139°49'0 0.0
2015-Jan-26 12:32N 35°22' E 139°49'0 0.0
2015-Jan-26 11:32N 35°22' E 139°49'0 0.0
2015-Jan-26 10:32N 35°22' E 139°49'0 0.0
2015-Jan-26 09:32N 35°22' E 139°49'9 9.2
2015-Jan-26 08:32N 35°31' E 139°53'4 0.3
2015-Jan-25 21:33N 35°33' E 139°57'9 9.0
2015-Jan-25 20:33N 35°26' E 139°49'1010.2
2015-Jan-25 19:33N 35°17' E 139°46'1010.4
2015-Jan-25 18:33N 35°06' E 139°44'1111.0
2015-Jan-25 17:33N 34°59' E 139°33'  
2015-Jan-21 17:14N 34°40' E 134°38'14 0.7
2015-Jan-20 21:05N 34°37' E 134°54'712.4
2015-Jan-20 20:33N 34°37' E 135°02'1010.1
2015-Jan-20 19:33N 34°26' E 135°02'1111.2
2015-Jan-20 18:32N 34°15' E 134°59'1010.3
2015-Jan-20 17:34N 34°05' E 134°60'214 8.9
2015-Jan-19 17:32N 34°49' E 139°14'1111.6
2015-Jan-19 16:33N 34°56' E 139°25'1211.9
2015-Jan-19 15:34N 35°03' E 139°37'1211.7
2015-Jan-19 14:33N 35°12' E 139°46'1110.9
2015-Jan-19 13:33N 35°22' E 139°42'7 7.2
2015-Jan-19 12:34N 35°21' E 139°51'0 0.0
2015-Jan-19 11:33N 35°22' E 139°51'0 0.0
2015-Jan-19 10:33N 35°22' E 139°51'0 0.0
2015-Jan-19 09:32N 35°22' E 139°51'0 0.0
2015-Jan-19 08:33N 35°22' E 139°51'0 0.0
2015-Jan-19 07:33N 35°22' E 139°51'  
Track history (hours):
 
Tides and Currents Weather Stations Pressure Air Temp Water Temp Dewpoint Dewpoint Depression Visibility Wind Speed Wind Dir Waves Ship Positions

Udo Maru

Last reported at 2015-Jan-29 07:27 UTC. Time now 2015-Feb-01 10:11 UTC.
Position N 34°38' E 134°54'.

Length 87 m; draft 4.9 m.

Type: Ship (hazmat cat A). MMSI: 431600499.

Date/timePositionNaut miles runAvg speedWind from/ knotsBaromVisibWave heightAir tempDewpointWater temp
2015-Jan-29 07:27N 34°38' E 134°54'1010.8
2015-Jan-29 06:33N 34°34' E 135°05'1211.7
2015-Jan-29 05:33N 34°23' E 135°02'1111.0
2015-Jan-29 04:33N 34°12' E 134°60'1311.0
2015-Jan-29 03:25N 33°59' E 135°01'223 9.2
2015-Jan-28 03:10N 34°56' E 139°22'711.1
2015-Jan-28 02:33N 34°60' E 139°29'1111.6
2015-Jan-28 01:33N 35°06' E 139°41'1110.9
2015-Jan-28 00:33N 35°16' E 139°45'10 9.6
2015-Jan-27 23:33N 35°26' E 139°45'4 3.7
2015-Jan-27 22:33N 35°28' E 139°49'0 0.0
2015-Jan-27 21:30N 35°28' E 139°49'0 0.1
2015-Jan-27 20:33N 35°28' E 139°49'0 0.0
2015-Jan-27 19:30N 35°28' E 139°49'0 0.0
2015-Jan-27 18:33N 35°28' E 139°49'0 0.0
2015-Jan-27 17:30N 35°28' E 139°49'0 0.0
2015-Jan-27 16:33N 35°28' E 139°49'0 0.0
2015-Jan-27 15:30N 35°28' E 139°49'0 0.0
2015-Jan-27 14:33N 35°28' E 139°49'0 0.0
2015-Jan-27 13:33N 35°28' E 139°49'0 0.0
2015-Jan-27 12:33N 35°28' E 139°49'0 0.0
2015-Jan-27 11:33N 35°28' E 139°49'0 0.0
2015-Jan-27 10:30N 35°28' E 139°49'7 7.1
2015-Jan-27 09:33N 35°22' E 139°50'1 0.7
2015-Jan-27 08:31N 35°22' E 139°51'0 0.0
2015-Jan-27 07:31N 35°22' E 139°51'0 0.0
2015-Jan-27 06:28N 35°22' E 139°51'0 0.0
2015-Jan-27 05:31N 35°22' E 139°51'0 0.0
2015-Jan-27 04:31N 35°22' E 139°51'0 0.0
2015-Jan-27 03:31N 35°22' E 139°51'0 0.0
2015-Jan-27 02:31N 35°22' E 139°51'0 0.2
2015-Jan-27 01:31N 35°21' E 139°51'1 0.9
2015-Jan-27 00:28N 35°22' E 139°50'1 0.8
2015-Jan-26 23:32N 35°22' E 139°49'0 0.0
2015-Jan-26 22:32N 35°22' E 139°49'0 0.0
2015-Jan-26 21:32N 35°22' E 139°49'0 0.0
2015-Jan-26 20:32N 35°22' E 139°49'0 0.0
2015-Jan-26 19:32N 35°22' E 139°49'0 0.0
2015-Jan-26 18:32N 35°22' E 139°49'0 0.0
2015-Jan-26 17:32N 35°22' E 139°49'0 0.0
2015-Jan-26 16:32N 35°22' E 139°49'0 0.0
2015-Jan-26 15:32N 35°22' E 139°49'0 0.0
2015-Jan-26 14:32N 35°22' E 139°49'0 0.1
2015-Jan-26 13:32N 35°22' E 139°49'0 0.0
2015-Jan-26 12:32N 35°22' E 139°49'0 0.0
2015-Jan-26 11:32N 35°22' E 139°49'0 0.0
2015-Jan-26 10:32N 35°22' E 139°49'0 0.0
2015-Jan-26 09:32N 35°22' E 139°49'9 9.2
2015-Jan-26 08:32N 35°31' E 139°53'4 0.3
2015-Jan-25 21:33N 35°33' E 139°57'9 9.0
2015-Jan-25 20:33N 35°26' E 139°49'1010.2
2015-Jan-25 19:33N 35°17' E 139°46'1010.4
2015-Jan-25 18:33N 35°06' E 139°44'1111.0
2015-Jan-25 17:33N 34°59' E 139°33'  
2015-Jan-21 17:14N 34°40' E 134°38'14 0.7
2015-Jan-20 21:05N 34°37' E 134°54'712.4
2015-Jan-20 20:33N 34°37' E 135°02'1010.1
2015-Jan-20 19:33N 34°26' E 135°02'1111.2
2015-Jan-20 18:32N 34°15' E 134°59'1010.3
2015-Jan-20 17:34N 34°05' E 134°60'214 8.9
2015-Jan-19 17:32N 34°49' E 139°14'1111.6
2015-Jan-19 16:33N 34°56' E 139°25'1211.9
2015-Jan-19 15:34N 35°03' E 139°37'1211.7
2015-Jan-19 14:33N 35°12' E 139°46'1110.9
2015-Jan-19 13:33N 35°22' E 139°42'7 7.2
2015-Jan-19 12:34N 35°21' E 139°51'0 0.0
2015-Jan-19 11:33N 35°22' E 139°51'0 0.0
2015-Jan-19 10:33N 35°22' E 139°51'0 0.0
2015-Jan-19 09:32N 35°22' E 139°51'0 0.0
2015-Jan-19 08:33N 35°22' E 139°51'0 0.0
2015-Jan-19 07:33N 35°22' E 139°51'  

Dump ship's entire track history